Time;durP1;ratioP1;P1;durP2;ratioP2;P2;SDS_P1;SDS_P2;PMS_P1;PMS_P2;Temp;Humidity;BMP_temperature;BMP_pressure;BME280_temperature;BME280_humidity;BME280_pressure;Samples;Min_cycle;Max_cycle;Signal;HPM_P1;HPM_P2
2022/04/17 00:03:51;;;;;;;;;;;8.70;38.80;;;7.14;43.53;102983.75;8333116;28;19921;-86
2022/04/17 00:08:13;;;;;;;;;;;8.60;38.80;;;7.00;43.96;102970.81;8301823;28;20012;-87
2022/04/17 00:12:35;;;;;;;;;;;8.70;39.00;;;6.98;43.98;102976.00;8302376;28;19963;-86
2022/04/17 00:16:57;;;;;;;;;;;8.70;39.00;;;6.86;43.89;102963.09;8321528;28;20384;-87
2022/04/17 00:21:20;;;;;;;;;;;8.60;38.90;;;6.76;43.81;102951.00;8301243;28;20445;-86
2022/04/17 00:25:42;;;;;;;;;;;8.50;38.90;;;6.73;44.06;102951.88;8300930;28;19921;-86
2022/04/17 00:30:05;;;;;;;;;;;8.50;38.90;;;6.67;44.08;102958.81;8300257;28;20127;-86
2022/04/17 00:34:29;;;;;;;;;;;8.40;38.90;;;6.58;44.22;102949.31;8296375;28;19924;-86
2022/04/17 00:38:51;;;;;;;;;;;8.30;38.90;;;6.63;43.79;102978.72;8298628;28;20004;-87
2022/04/17 00:43:24;;;;;;;;;;;8.20;39.00;;;6.54;43.77;102965.78;8295385;28;20012;-86
2022/04/17 00:47:45;;;;;;;;;;;8.20;39.00;;;6.49;44.20;102959.72;8321566;28;20012;-86
2022/04/17 00:52:07;;;;;;;;;;;8.10;39.00;;;6.53;44.15;102969.22;8313157;28;20000;-87
2022/04/17 00:56:30;;;;;;;;;;;8.10;39.10;;;6.39;44.13;102957.13;8315111;28;20485;-87
2022/04/17 01:00:53;;;;;;;;;;;8.00;39.00;;;6.35;43.89;102954.56;8314685;28;20011;-86
2022/04/17 01:05:14;;;;;;;;;;;8.00;39.10;;;6.34;44.06;102958.00;8300983;28;19921;-86
2022/04/17 01:09:36;;;;;;;;;;;8.00;39.10;;;5.71;44.56;102855.16;8303764;28;19996;-86
2022/04/17 01:13:58;;;;;;;;;;;7.90;39.10;;;5.98;44.33;102918.28;8311812;28;19921;-86
2022/04/17 01:18:20;;;;;;;;;;;7.90;39.20;;;5.82;44.17;102901.81;8305463;28;20076;-87
2022/04/17 01:22:49;;;;;;;;;;;7.90;39.20;;;5.94;43.84;102926.91;8309431;28;20011;-86
2022/04/17 01:27:11;;;;;;;;;;;7.80;39.30;;;6.04;44.06;102940.75;8301188;28;20024;-86
2022/04/17 01:31:32;;;;;;;;;;;7.80;39.30;;;5.94;43.92;102943.38;8289698;28;20007;-86
2022/04/17 01:35:54;;;;;;;;;;;7.70;39.30;;;5.89;44.13;102952.84;8311119;28;19923;-86
2022/04/17 01:40:16;;;;;;;;;;;7.70;39.30;;;5.68;44.45;102929.50;8317328;28;20024;-86
2022/04/17 01:44:38;;;;;;;;;;;7.60;39.20;;;5.91;44.08;102965.78;8292011;28;19921;-86
2022/04/17 01:48:59;;;;;;;;;;;7.60;39.30;;;5.76;44.30;102954.53;8298757;28;20024;-86
2022/04/17 01:53:21;;;;;;;;;;;7.50;39.30;;;5.74;44.53;102945.91;8288531;28;20020;-86
2022/04/17 01:57:43;;;;;;;;;;;7.70;39.40;;;5.62;44.42;102938.13;8292008;28;20278;-86
2022/04/17 02:02:05;;;;;;;;;;;7.40;39.40;;;5.59;44.55;102938.13;8274374;28;20000;-86
2022/04/17 02:06:27;;;;;;;;;;;7.40;39.40;;;5.60;44.52;102952.81;8280668;28;19921;-86
2022/04/17 02:10:49;;;;;;;;;;;7.40;39.40;;;5.54;44.49;102942.44;8298281;28;20012;-86
2022/04/17 02:15:11;;;;;;;;;;;7.40;39.50;;;5.58;44.57;102954.50;8305737;28;20008;-86
2022/04/17 02:19:33;;;;;;;;;;;7.10;39.40;;;5.58;44.33;102969.22;8328779;28;20012;-86
2022/04/17 02:23:55;;;;;;;;;;;7.30;39.50;;;5.44;44.36;102948.44;8325908;28;20437;-85
2022/04/17 02:28:17;;;;;;;;;;;7.20;39.40;;;5.36;44.49;102932.88;8294130;28;19924;-84
2022/04/17 02:32:38;;;;;;;;;;;7.20;39.50;;;5.28;44.10;102927.69;8305101;28;19991;-85
2022/04/17 02:37:00;;;;;;;;;;;7.10;39.40;;;5.18;44.51;102931.09;8301491;28;20342;-85
2022/04/17 02:41:22;;;;;;;;;;;7.00;39.30;;;5.19;44.47;102940.63;8314438;28;19923;-85
2022/04/17 02:45:44;;;;;;;;;;;6.90;39.30;;;5.10;44.24;102945.75;8291923;28;19925;-85
2022/04/17 02:50:07;;;;;;;;;;;6.90;39.40;;;4.95;44.29;102915.50;8311053;28;20012;-84
2022/04/17 02:54:29;;;;;;;;;;;6.80;39.40;;;5.00;44.85;102934.50;8299567;28;20350;-84
2022/04/17 02:58:54;;;;;;;;;;;6.60;39.50;;;4.93;44.38;102931.91;8311890;28;20438;-84
2022/04/17 03:07:57;;;;;;;;;;;6.60;39.50;;;4.68;44.59;102921.44;8314774;28;20008;-84
2022/04/17 03:12:19;;;;;;;;;;;6.40;39.40;;;4.72;44.38;102933.50;8304771;28;20019;-84
2022/04/17 03:16:40;;;;;;;;;;;6.40;39.40;;;4.62;44.76;102916.25;8327823;28;20003;-85
2022/04/17 03:21:02;;;;;;;;;;;6.40;39.50;;;4.56;44.46;102909.28;8319046;28;20032;-84
2022/04/17 03:25:24;;;;;;;;;;;6.20;39.50;;;4.40;44.47;102889.38;8314194;28;20400;-84
2022/04/17 03:29:46;;;;;;;;;;;6.30;39.60;;;4.46;44.83;102897.19;8311533;28;20015;-85
2022/04/17 03:34:08;;;;;;;;;;;6.30;39.70;;;4.43;44.57;102897.16;8302434;28;20011;-84
2022/04/17 03:38:29;;;;;;;;;;;6.20;39.70;;;4.39;44.46;102878.16;8284462;28;20437;-84
2022/04/17 03:42:51;;;;;;;;;;;6.20;39.80;;;4.33;44.58;102888.47;8297527;28;20003;-84
2022/04/17 03:47:13;;;;;;;;;;;6.10;39.70;;;4.23;44.73;102881.53;8329194;28;19927;-84
2022/04/17 03:51:36;;;;;;;;;;;6.10;39.60;;;4.26;44.72;102891.00;8313559;28;20322;-84
2022/04/17 03:55:57;;;;;;;;;;;6.00;39.70;;;4.08;44.71;102860.72;8295419;28;20008;-84
2022/04/17 04:00:19;;;;;;;;;;;6.00;39.70;;;4.08;44.51;102871.06;8331459;28;20016;-84
2022/04/17 04:04:41;;;;;;;;;;;5.80;39.70;;;4.07;44.88;102865.03;8319009;28;19927;-84
2022/04/17 04:09:03;;;;;;;;;;;5.80;39.70;;;4.04;44.78;102859.00;8324043;28;20016;-84
2022/04/17 04:13:25;;;;;;;;;;;5.90;39.80;;;4.02;44.80;102856.38;8306592;28;20011;-84
2022/04/17 04:17:47;;;;;;;;;;;5.80;39.80;;;4.02;44.68;102861.56;8301715;28;20003;-84
2022/04/17 04:22:09;;;;;;;;;;;5.70;39.80;;;4.03;44.84;102862.44;8313056;28;20571;-83
2022/04/17 04:26:31;;;;;;;;;;;5.80;39.90;;;4.07;44.88;102874.53;8311620;28;19928;-83
2022/04/17 04:30:53;;;;;;;;;;;5.90;39.90;;;3.95;45.09;102860.66;8314082;28;20004;-83
2022/04/17 04:35:16;;;;;;;;;;;5.80;39.90;;;4.10;45.21;102887.47;8294622;28;20008;-82
2022/04/17 04:39:38;;;;;;;;;;;5.80;39.90;;;4.00;45.04;102868.47;8326452;28;20626;-83
2022/04/17 04:44:00;;;;;;;;;;;5.80;40.00;;;3.97;45.08;102858.97;8277705;28;20377;-83
2022/04/17 04:53:07;;;;;;;;;;;5.90;40.00;;;4.12;45.04;102893.53;8299872;28;20008;-81
2022/04/17 04:57:29;;;;;;;;;;;5.90;40.10;;;4.13;44.99;102892.66;8291742;28;20417;-84
2022/04/17 05:01:51;;;;;;;;;;;5.90;40.10;;;3.99;45.03;102864.13;8313824;28;20048;-80
2022/04/17 05:06:14;;;;;;;;;;;5.90;40.10;;;4.15;45.32;102893.53;8294013;28;19926;-83
2022/04/17 05:10:35;;;;;;;;;;;5.90;40.10;;;4.01;45.11;102864.16;8301941;28;20438;-82
2022/04/17 05:14:57;;;;;;;;;;;5.90;40.10;;;3.97;44.92;102869.31;8320776;28;20028;-81
2022/04/17 05:19:27;;;;;;;;;;;5.90;40.10;;;4.05;45.02;102881.41;8298229;28;20012;-81
2022/04/17 05:23:49;;;;;;;;;;;5.90;40.10;;;4.06;45.39;102886.59;8304104;28;19917;-82
2022/04/17 05:28:11;;;;;;;;;;;5.80;40.10;;;4.07;45.07;102882.28;8303869;28;19921;-80
2022/04/17 05:32:32;;;;;;;;;;;6.10;40.30;;;4.12;45.12;102880.59;8310641;28;20016;-81
2022/04/17 05:36:54;;;;;;;;;;;6.10;40.40;;;4.15;45.47;102878.03;8311571;28;20400;-80
2022/04/17 05:41:16;;;;;;;;;;;6.00;40.30;;;4.09;45.52;102859.91;8309249;28;20442;-81
2022/04/17 05:45:38;;;;;;;;;;;6.00;40.40;;;4.10;45.59;102856.44;8299916;28;20008;-80
2022/04/17 05:50:01;;;;;;;;;;;6.10;40.50;;;4.19;45.42;102859.97;8332456;28;20361;-81
2022/04/17 05:54:24;;;;;;;;;;;6.20;40.60;;;4.46;45.51;102892.00;8304561;28;20354;-80
2022/04/17 05:58:47;;;;;;;;;;;6.30;40.70;;;4.57;45.78;102892.91;8291371;28;20012;-81
2022/04/17 06:03:09;;;;;;;;;;;6.30;40.90;;;4.80;45.84;102895.59;8300857;28;20007;-81
2022/04/17 06:07:31;;;;;;;;;;;6.60;41.30;;;4.99;45.78;102882.72;8309373;28;19921;-82
2022/04/17 06:11:53;;;;;;;;;;;6.70;41.50;;;5.27;46.07;102892.28;8314631;28;20377;-82
2022/04/17 06:16:15;;;;;;;;;;;7.00;41.70;;;5.25;46.30;102847.38;8311021;28;20492;-82
2022/04/17 06:20:37;;;;;;;;;;;7.30;41.70;;;5.70;45.61;102881.13;8303652;28;20004;-84
2022/04/17 06:24:59;;;;;;;;;;;7.50;41.70;;;5.83;46.24;102864.66;8302862;28;19921;-85
2022/04/17 06:29:21;;;;;;;;;;;7.80;41.70;;;5.99;46.22;102865.53;8296125;28;20020;-81
2022/04/17 06:33:43;;;;;;;;;;;8.00;41.40;;;6.24;46.13;102876.75;8319259;28;20355;-83
2022/04/17 06:38:06;;;;;;;;;;;8.10;41.30;;;6.30;46.17;102862.91;8309957;28;20088;-86
2022/04/17 06:42:28;;;;;;;;;;;8.30;41.20;;;6.52;46.05;102874.06;8290256;28;19924;-84
2022/04/17 06:46:50;;;;;;;;;;;8.50;41.30;;;6.64;45.76;102869.69;8284017;28;19921;-84
2022/04/17 06:51:12;;;;;;;;;;;8.60;41.20;;;6.70;46.28;102855.81;8285269;28;20012;-84
2022/04/17 06:55:33;;;;;;;;;;;8.80;41.10;;;6.87;46.05;102850.53;8294948;28;20410;-84
2022/04/17 06:59:55;;;;;;;;;;;8.90;41.00;;;6.98;45.94;102850.47;8306988;28;19923;-81
2022/04/17 07:04:18;;;;;;;;;;;8.90;40.90;;;7.19;45.78;102862.47;8330449;28;19923;-81
2022/04/17 07:08:39;;;;;;;;;;;9.20;40.80;;;7.30;45.76;102845.94;8331389;28;20660;-80
2022/04/17 07:13:01;;;;;;;;;;;9.40;40.70;;;7.45;45.81;102841.47;8310894;28;20357;-85
2022/04/17 07:17:32;;;;;;;;;;;9.50;40.70;;;7.47;45.87;102809.41;8304554;28;19927;-81
2022/04/17 07:21:53;;;;;;;;;;;9.60;40.60;;;7.85;45.73;102844.59;8321790;28;20390;-83
2022/04/17 07:26:15;;;;;;;;;;;9.80;40.60;;;8.06;45.91;102845.25;8305777;28;20365;-83
2022/04/17 07:30:37;;;;;;;;;;;10.00;40.60;;;8.27;45.81;102847.63;8299818;28;19924;-83
2022/04/17 07:34:59;;;;;;;;;;;10.20;40.60;;;8.54;46.26;102849.09;8286487;28;20023;-83
2022/04/17 07:39:22;;;;;;;;;;;10.20;40.50;;;8.54;45.80;102806.56;8295129;28;20000;-85
2022/04/17 07:43:43;;;;;;;;;;;10.60;40.60;;;9.04;45.50;102831.03;8275622;28;20008;-83
2022/04/17 07:48:05;;;;;;;;;;;10.90;40.20;;;9.31;45.63;102833.19;8315415;28;19921;-83
2022/04/17 07:52:27;;;;;;;;;;;11.10;40.40;;;9.63;45.84;102838.78;8273222;28;20004;-83
2022/04/17 07:56:49;;;;;;;;;;;11.40;40.50;;;9.75;45.75;102821.19;8291872;28;20004;-87
2022/04/17 08:01:11;;;;;;;;;;;12.00;40.20;;;9.93;45.55;102806.06;8306389;28;20004;-88
2022/04/17 08:05:40;;;;;;;;;;;11.90;40.20;;;10.31;45.78;102820.13;8300984;28;19921;-86
2022/04/17 08:10:02;;;;;;;;;;;12.20;40.30;;;10.57;45.02;102807.41;8315328;28;20004;-84
2022/04/17 08:14:24;;;;;;;;;;;12.50;39.70;;;10.73;45.41;102781.78;8297204;28;20004;-87
2022/04/17 08:18:46;;;;;;;;;;;12.70;39.90;;;11.11;45.58;102798.34;8293752;28;20012;-87
2022/04/17 08:23:08;;;;;;;;;;;12.90;40.00;;;11.27;45.24;102783.97;8314201;28;20464;-87
2022/04/17 08:27:29;;;;;;;;;;;13.20;39.70;;;11.50;45.50;102780.78;8309615;28;19981;-85
2022/04/17 08:31:51;;;;;;;;;;;13.40;39.80;;;11.70;45.18;102764.56;8329569;28;20012;-91
2022/04/17 08:36:13;;;;;;;;;;;13.80;39.60;;;11.99;45.08;102778.66;8292608;28;20019;-82
2022/04/17 08:40:37;;;;;;;;;;;13.80;39.80;;;11.85;45.44;102721.38;8304749;28;20012;-94
2022/04/17 08:44:59;;;;;;;;;;;13.80;38.90;;;12.48;45.04;102785.06;8291340;28;20008;-86
2022/04/17 08:49:21;;;;;;;;;;;14.20;39.30;;;12.66;45.21;102760.03;8301996;28;20012;-86
2022/04/17 08:53:45;;;;;;;;;;;14.50;39.30;;;12.87;45.33;102745.41;8299117;28;21334;-87
2022/04/17 08:58:07;;;;;;;;;;;14.80;39.50;;;13.19;45.31;102770.56;8293129;28;20388;-89
2022/04/17 09:02:29;;;;;;;;;;;15.10;39.50;;;13.38;45.28;102757.72;8297505;28;20011;-88
2022/04/17 09:06:51;;;;;;;;;;;15.30;39.40;;;13.47;44.98;102738.16;8307822;28;20012;-89
2022/04/17 09:11:13;;;;;;;;;;;15.50;39.50;;;13.66;44.74;102736.63;8292249;28;20016;-90
2022/04/17 09:15:36;;;;;;;;;;;15.70;38.50;;;13.81;44.74;102737.81;8315172;28;20203;-89
2022/04/17 09:19:58;;;;;;;;;;;15.80;39.30;;;13.91;44.92;102730.47;8288002;28;20001;-91
2022/04/17 09:24:21;;;;;;;;;;;15.90;38.80;;;13.99;44.47;102727.53;8300188;28;20389;-85
2022/04/17 09:28:44;;;;;;;;;;;16.10;38.60;;;14.02;44.55;102717.78;8303861;28;19947;-87
2022/04/17 09:33:10;;;;;;;;;;;16.00;38.80;;;14.26;44.64;102725.66;8307514;28;20023;-86
2022/04/17 09:37:35;;;;;;;;;;;16.10;39.10;;;14.36;44.38;102722.59;8278779;28;20004;-88
2022/04/17 09:41:58;;;;;;;;;;;16.20;37.60;;;14.42;44.18;102692.63;8278463;28;19917;-91
2022/04/17 09:46:20;;;;;;;;;;;16.30;36.90;;;14.65;43.93;102710.09;8279171;28;20020;-89
2022/04/17 09:50:42;;;;;;;;;;;16.40;36.40;;;14.76;44.06;102699.16;8281805;28;19923;-85
2022/04/17 09:55:04;;;;;;;;;;;16.50;37.50;;;14.79;43.78;102670.94;8285899;28;20008;-84
2022/04/17 09:59:27;;;;;;;;;;;16.60;37.10;;;15.05;44.01;102688.25;8314279;28;20345;-84
2022/04/17 10:03:50;;;;;;;;;;;16.80;36.80;;;15.07;43.95;102661.91;8307358;23;20008;-92
2022/04/17 10:08:12;;;;;;;;;;;16.90;37.10;;;15.35;43.50;102676.47;8336492;28;20136;-90
2022/04/17 10:12:34;;;;;;;;;;;17.00;35.60;;;15.44;43.75;102661.13;8344814;28;20453;-88
2022/04/17 10:16:57;;;;;;;;;;;17.20;36.60;;;15.60;43.67;102661.28;8306709;28;20016;-88
2022/04/17 10:21:21;;;;;;;;;;;17.30;36.10;;;15.71;43.65;102652.94;8308142;28;20016;-91
2022/04/17 10:25:43;;;;;;;;;;;17.40;36.40;;;15.88;43.49;102655.66;8279228;28;19921;-90
2022/04/17 10:30:15;;;;;;;;;;;17.60;36.40;;;15.90;43.48;102638.00;8295144;28;20335;-91
2022/04/17 10:39:14;;;;;;;;;;;17.80;36.20;;;16.15;43.27;102639.47;8252563;28;20367;-90
2022/04/17 10:43:42;;;;;;;;;;;17.80;34.80;;;16.29;43.22;102642.28;8307166;22;19925;-91
2022/04/17 10:48:11;;;;;;;;;;;18.10;36.90;;;16.26;43.19;102615.22;8297520;28;19921;-88
2022/04/17 10:52:33;;;;;;;;;;;18.10;36.30;;;16.32;43.00;102610.50;8287518;28;20472;-82
2022/04/17 10:56:55;;;;;;;;;;;18.20;33.00;;;16.62;42.74;102633.63;8344478;28;20473;-87
2022/04/17 11:01:37;;;;;;;;;;;18.30;35.00;;;16.52;42.46;102595.44;8328765;28;20193;-87
2022/04/17 11:06:20;;;;;;;;;;;18.30;32.90;;;16.73;41.96;102617.25;8328486;28;19921;-87
2022/04/17 11:10:42;;;;;;;;;;;18.40;34.60;;;16.65;42.14;102607.09;8314175;28;20032;-85
2022/04/17 11:15:04;;;;;;;;;;;18.50;33.90;;;16.89;41.95;102615.56;8336548;28;20356;-86
2022/04/17 11:19:31;;;;;;;;;;;18.80;34.20;;;16.92;41.91;102617.19;8314517;28;19924;-88
2022/04/17 11:23:53;;;;;;;;;;;18.50;34.00;;;16.95;41.73;102611.75;8329369;28;20022;-88
2022/04/17 11:28:37;;;;;;;;;;;18.70;34.90;;;16.95;42.00;102582.72;8315388;28;19929;-88
2022/04/17 11:33:00;;;;;;;;;;;18.70;35.60;;;17.15;41.97;102594.91;8295261;28;20381;-87
2022/04/17 11:37:22;;;;;;;;;;;18.70;35.90;;;17.31;41.95;102585.22;8329176;28;20023;-85
2022/04/17 11:41:44;;;;;;;;;;;18.90;35.20;;;17.31;41.79;102555.28;8310572;28;19917;-83
2022/04/17 11:46:06;;;;;;;;;;;18.90;32.00;;;17.40;41.61;102558.31;8341842;28;19927;-84
2022/04/17 11:50:28;;;;;;;;;;;19.10;35.40;;;17.51;41.57;102563.00;8326461;28;20020;-84
2022/04/17 11:54:50;;;;;;;;;;;19.10;34.90;;;17.55;41.59;102556.63;8315127;28;20379;-84
2022/04/17 11:59:12;;;;;;;;;;;19.10;34.10;;;17.62;41.58;102557.13;8309250;28;19916;-83
2022/04/17 12:03:38;;;;;;;;;;;19.20;35.90;;;17.51;41.48;102523.38;8326852;28;20008;-83
2022/04/17 12:08:09;;;;;;;;;;;19.20;33.80;;;17.67;41.01;102541.88;8317766;28;20382;-83
2022/04/17 12:12:35;;;;;;;;;;;19.30;36.40;;;17.51;40.68;102528.66;8327321;28;20007;-85
2022/04/17 12:16:57;;;;;;;;;;;19.30;35.30;;;17.48;41.15;102513.81;8312323;28;20008;-86
2022/04/17 12:21:26;;;;;;;;;;;19.20;34.20;;;17.57;41.10;102503.69;8340970;28;20023;-85
2022/04/17 12:25:47;;;;;;;;;;;19.20;32.00;;;17.62;40.98;102493.72;8321968;28;20310;-86
2022/04/17 12:30:09;;;;;;;;;;;19.40;34.80;;;17.69;40.56;102493.28;8329232;28;20003;-85
2022/04/17 12:34:31;;;;;;;;;;;19.30;30.80;;;17.67;40.27;102489.03;8332588;28;20016;-85
2022/04/17 12:38:57;;;;;;;;;;;19.30;33.30;;;17.61;40.41;102470.88;8307844;28;19917;-88
2022/04/17 12:43:20;;;;;;;;;;;19.30;33.00;;;17.64;40.38;102453.06;8361326;22;19939;-88
2022/04/17 12:48:06;;;;;;;;;;;19.30;34.40;;;17.77;40.41;102465.53;8344563;28;19927;-87
2022/04/17 12:52:28;;;;;;;;;;;19.30;34.50;;;17.84;40.35;102466.94;8381221;28;19917;-86
2022/04/17 12:57:00;;;;;;;;;;;19.40;32.70;;;17.88;40.21;102449.97;8356168;28;19917;-87
2022/04/17 13:01:24;;;;;;;;;;;19.30;34.60;;;17.90;40.07;102445.41;8374778;28;20014;-82
2022/04/17 13:06:00;;;;;;;;;;;19.50;31.60;;;17.91;39.79;102433.94;8378984;28;20284;-85
2022/04/17 13:10:30;;;;;;;;;;;19.50;30.30;;;17.91;39.67;102433.94;8368268;28;19995;-85
2022/04/17 13:14:56;;;;;;;;;;;19.50;30.00;;;17.98;39.39;102434.41;8369033;28;20006;-84
2022/04/17 13:19:20;;;;;;;;;;;19.50;33.20;;;17.95;39.37;102427.50;8367738;28;20015;-85
2022/04/17 13:23:42;;;;;;;;;;;19.50;32.70;;;17.99;39.54;102413.19;8369431;28;20015;-85
2022/04/17 13:28:04;;;;;;;;;;;19.60;32.30;;;18.00;39.39;102398.16;8369421;28;19927;-84
2022/04/17 13:32:25;;;;;;;;;;;19.60;31.30;;;18.14;39.34;102401.66;8372367;28;20019;-86
2022/04/17 13:36:47;;;;;;;;;;;19.70;32.10;;;18.16;39.32;102396.28;8354571;28;19923;-85
2022/04/17 13:41:08;;;;;;;;;;;19.60;33.10;;;18.19;39.11;102403.19;8351488;28;20007;-85
2022/04/17 13:45:30;;;;;;;;;;;19.70;33.30;;;18.16;39.17;102393.66;8377641;28;20016;-85
2022/04/17 13:49:52;;;;;;;;;;;19.60;31.30;;;18.21;39.13;102383.66;8368354;28;19992;-85
2022/04/17 13:54:14;;;;;;;;;;;19.70;33.20;;;18.13;38.80;102373.53;8355111;28;19923;-85
2022/04/17 13:58:36;;;;;;;;;;;19.80;34.70;;;18.13;38.82;102381.47;8355910;28;20007;-84
2022/04/17 14:02:58;;;;;;;;;;;19.60;31.60;;;18.21;38.93;102388.94;8368338;28;20395;-85
2022/04/17 14:07:19;;;;;;;;;;;19.70;32.60;;;18.16;38.78;102366.38;8370606;28;19946;-85
2022/04/17 14:11:43;;;;;;;;;;;19.60;33.30;;;18.23;38.82;102365.06;8353054;28;20007;-85
2022/04/17 14:16:05;;;;;;;;;;;19.60;33.70;;;18.05;38.46;102335.28;8381253;28;19991;-84
2022/04/17 14:20:27;;;;;;;;;;;19.60;33.80;;;18.04;37.95;102345.03;8378854;28;19921;-85
2022/04/17 14:24:48;;;;;;;;;;;19.70;33.30;;;18.03;38.23;102338.00;8352295;28;20023;-85
2022/04/17 14:29:10;;;;;;;;;;;19.50;33.50;;;18.02;38.39;102338.13;8364916;28;19943;-85
2022/04/17 14:33:32;;;;;;;;;;;19.50;32.60;;;17.83;38.30;102296.09;8367833;28;19999;-85
2022/04/17 14:37:54;;;;;;;;;;;19.50;33.70;;;18.10;38.62;102330.56;8351407;28;20007;-85
2022/04/17 14:42:16;;;;;;;;;;;19.50;33.10;;;18.04;38.33;102310.66;8367543;28;20476;-84
2022/04/17 14:46:38;;;;;;;;;;;19.50;32.60;;;18.02;38.56;102296.66;8380129;28;19921;-85
2022/04/17 14:51:01;;;;;;;;;;;19.50;34.00;;;18.11;38.49;102296.09;8383734;28;20007;-85
2022/04/17 14:55:23;;;;;;;;;;;19.60;33.40;;;18.12;38.72;102302.25;8369535;28;19917;-85
2022/04/17 14:59:45;;;;;;;;;;;19.40;32.30;;;18.17;38.35;102297.50;8367197;28;20000;-86
2022/04/17 15:04:07;;;;;;;;;;;19.60;34.10;;;18.13;38.58;102299.50;8379238;28;19921;-85
2022/04/17 15:08:29;;;;;;;;;;;19.60;33.20;;;17.96;38.51;102270.63;8382230;28;19929;-85
2022/04/17 15:12:50;;;;;;;;;;;19.60;32.30;;;17.98;38.29;102274.00;8367076;28;20351;-85
2022/04/17 15:17:12;;;;;;;;;;;19.40;33.00;;;18.02;38.40;102278.16;8365527;28;19916;-85
2022/04/17 15:21:33;;;;;;;;;;;19.40;32.70;;;17.89;38.62;102250.78;8365843;28;20012;-85
2022/04/17 15:25:55;;;;;;;;;;;19.70;32.40;;;17.97;38.43;102261.75;8387998;28;19916;-85
2022/04/17 15:30:16;;;;;;;;;;;19.40;33.50;;;17.91;38.43;102256.84;8369851;28;20015;-85
2022/04/17 15:34:38;;;;;;;;;;;19.50;33.40;;;17.94;38.47;102254.00;8375754;28;20003;-85
2022/04/17 15:38:59;;;;;;;;;;;19.40;32.60;;;17.98;38.31;102258.13;8359782;28;20020;-85
2022/04/17 15:48:19;;;;;;;;;;;19.30;33.60;;;17.94;38.48;102250.50;8382400;28;19920;-85
2022/04/17 15:52:41;;;;;;;;;;;19.30;33.60;;;17.90;38.44;102240.13;8360631;28;19917;-85
2022/04/17 15:57:03;;;;;;;;;;;19.30;34.10;;;17.86;38.52;102228.03;8375361;28;20019;-85
2022/04/17 16:01:24;;;;;;;;;;;19.30;34.10;;;17.74;38.28;102204.13;8375426;28;20262;-85
2022/04/17 16:05:48;;;;;;;;;;;19.10;33.50;;;17.76;38.28;102220.75;8375812;28;19939;-85
2022/04/17 16:10:12;;;;;;;;;;;19.10;33.30;;;17.61;38.36;102202.25;8387637;28;20007;-85
2022/04/17 16:14:33;;;;;;;;;;;19.10;33.10;;;17.67;38.52;102224.81;8386862;28;20352;-85
2022/04/17 16:18:55;;;;;;;;;;;19.00;32.70;;;17.54;38.25;102200.06;8372273;28;20006;-85
2022/04/17 16:23:17;;;;;;;;;;;19.00;33.00;;;17.50;38.24;102198.53;8369650;28;19917;-85
2022/04/17 16:27:41;;;;;;;;;;;19.00;33.40;;;17.48;38.64;102191.59;8356609;28;19924;-85
2022/04/17 16:32:03;;;;;;;;;;;18.90;34.10;;;17.45;38.07;102193.56;8368195;28;20011;-85
2022/04/17 16:36:25;;;;;;;;;;;18.90;33.80;;;17.35;38.13;102193.25;8371004;28;19916;-85
2022/04/17 16:40:48;;;;;;;;;;;18.80;33.60;;;17.33;38.28;102207.50;8372299;28;19916;-82
2022/04/17 16:45:09;;;;;;;;;;;18.70;33.20;;;17.26;38.35;102204.38;8387367;28;20007;-80
2022/04/17 16:49:31;;;;;;;;;;;18.60;33.70;;;17.17;38.28;102192.56;8365873;28;19920;-81
2022/04/17 16:53:53;;;;;;;;;;;18.70;33.30;;;17.07;38.17;102183.53;8393300;28;19999;-81
2022/04/17 17:02:55;;;;;;;;;;;18.50;34.30;;;16.98;38.38;102176.97;8393387;28;19995;-81
2022/04/17 17:07:16;;;;;;;;;;;18.40;33.80;;;17.06;38.36;102194.16;8381097;28;19928;-81
2022/04/17 17:11:38;;;;;;;;;;;18.30;34.50;;;16.97;38.10;102185.00;8396167;28;20455;-81
2022/04/17 17:16:00;;;;;;;;;;;18.40;34.40;;;16.91;38.39;102186.22;8391757;28;20452;-81
2022/04/17 17:20:22;;;;;;;;;;;18.30;34.80;;;16.87;38.23;102189.09;8356861;28;19999;-81
2022/04/17 17:24:44;;;;;;;;;;;18.30;34.30;;;16.71;38.41;102174.13;8392808;28;19995;-81
2022/04/17 17:29:06;;;;;;;;;;;18.10;34.00;;;16.52;38.24;102155.88;8390799;28;19927;-82
2022/04/17 17:33:28;;;;;;;;;;;18.10;34.40;;;16.69;38.30;102194.50;8392651;28;20023;-81
2022/04/17 17:37:50;;;;;;;;;;;18.00;33.20;;;16.55;38.34;102194.41;8392208;28;20005;-81
2022/04/17 17:42:12;;;;;;;;;;;17.90;34.00;;;16.37;38.34;102178.69;8392782;28;19987;-81
2022/04/17 17:46:34;;;;;;;;;;;17.70;34.00;;;16.44;38.13;102210.00;8395127;28;19931;-81
2022/04/17 17:50:56;;;;;;;;;;;17.80;34.40;;;16.40;38.31;102206.69;8381991;28;19923;-81
2022/04/17 17:55:19;;;;;;;;;;;17.70;34.40;;;16.28;38.39;102191.53;8388565;28;20011;-81
2022/04/17 17:59:41;;;;;;;;;;;17.60;34.60;;;16.27;38.33;102197.75;8388856;28;20024;-81
2022/04/17 18:04:04;;;;;;;;;;;17.60;34.60;;;16.06;38.58;102184.81;8394951;28;20007;-81
2022/04/17 18:17:46;;;;;;;;;;;17.40;34.50;;;15.95;38.23;102178.44;8365676;28;20007;-81
2022/04/17 18:26:49;;;;;;;;;;;17.20;35.10;;;15.77;38.57;102154.81;8391790;28;20290;-81
2022/04/17 18:31:11;;;;;;;;;;;17.20;35.10;;;15.72;38.58;102161.25;8386790;28;20444;-81
2022/04/17 18:35:33;;;;;;;;;;;17.10;35.10;;;15.73;38.51;102186.66;8390856;28;20516;-81
2022/04/17 18:39:55;;;;;;;;;;;17.00;35.30;;;15.66;38.38;102183.44;8392442;28;19922;-81
2022/04/17 18:44:17;;;;;;;;;;;17.00;35.30;;;15.51;38.61;102169.34;8390846;28;20443;-81
2022/04/17 18:48:39;;;;;;;;;;;16.90;35.30;;;15.48;38.59;102180.88;8392414;28;19920;-81
2022/04/17 18:53:01;;;;;;;;;;;16.80;35.30;;;15.23;38.45;102160.25;8390818;28;19924;-81
2022/04/17 18:57:22;;;;;;;;;;;16.70;35.40;;;15.27;38.56;102177.56;8392549;28;19923;-81
2022/04/17 19:01:44;;;;;;;;;;;16.50;35.40;;;15.14;38.37;102173.88;8396612;28;20011;-79
2022/04/17 19:06:06;;;;;;;;;;;16.60;35.40;;;15.12;38.28;102185.41;8390107;28;20003;-82
2022/04/17 19:10:28;;;;;;;;;;;16.50;35.40;;;14.88;38.29;102148.91;8400481;28;20468;-82
2022/04/17 19:14:49;;;;;;;;;;;16.30;35.50;;;14.97;38.65;102184.41;8400701;28;20031;-82
2022/04/17 19:19:12;;;;;;;;;;;16.30;35.60;;;14.95;38.58;102192.38;8396504;28;20016;-82
2022/04/17 19:23:34;;;;;;;;;;;16.30;35.60;;;14.67;38.45;102157.88;8395574;28;20002;-82
2022/04/17 19:27:57;;;;;;;;;;;16.20;35.60;;;14.73;38.70;102176.81;8394922;28;19924;-82
2022/04/17 19:37:00;;;;;;;;;;;15.90;35.60;;;14.52;38.53;102173.44;8397226;28;20440;-82
2022/04/17 19:41:22;;;;;;;;;;;15.80;35.70;;;14.43;38.47;102168.59;8390838;28;19920;-82
2022/04/17 19:45:43;;;;;;;;;;;15.80;35.80;;;14.22;38.84;102143.34;8401513;28;20019;-82
2022/04/17 19:50:06;;;;;;;;;;;15.60;35.80;;;14.18;38.73;102150.53;8392736;28;19921;-82
2022/04/17 19:54:28;;;;;;;;;;;15.60;35.80;;;14.20;38.91;102176.72;8402494;28;20011;-82
2022/04/17 19:58:49;;;;;;;;;;;15.50;35.80;;;14.08;38.69;102162.41;8394198;23;19935;-82
2022/04/17 20:03:11;;;;;;;;;;;15.30;35.80;;;13.91;38.72;102136.94;8371804;28;19923;-82
2022/04/17 20:07:33;;;;;;;;;;;15.40;35.90;;;13.99;38.82;102162.81;8381738;28;20019;-82
2022/04/17 20:11:55;;;;;;;;;;;15.30;36.00;;;13.76;38.64;102145.50;8336768;28;20357;-81
2022/04/17 20:16:19;;;;;;;;;;;15.20;35.90;;;13.71;38.80;102164.09;8364720;28;20016;-81
2022/04/17 20:20:43;;;;;;;;;;;15.00;35.80;;;13.49;38.94;102143.19;8362690;28;20417;-82
2022/04/17 20:25:05;;;;;;;;;;;15.00;35.90;;;13.51;38.45;102162.38;8362937;28;20329;-82
2022/04/17 20:29:27;;;;;;;;;;;14.80;35.90;;;13.18;38.75;102127.94;8355395;28;20004;-82
2022/04/17 20:33:49;;;;;;;;;;;14.70;35.90;;;13.05;38.91;102125.00;8361483;28;20003;-81
2022/04/17 20:38:10;;;;;;;;;;;14.50;35.90;;;13.15;39.05;102149.91;8363665;28;19991;-81
2022/04/17 20:42:33;;;;;;;;;;;14.40;35.90;;;13.09;39.03;102154.56;8363734;28;20099;-81
2022/04/17 20:51:36;;;;;;;;;;;14.30;36.00;;;12.88;39.09;102133.59;8367935;28;20003;-82